createdAt,value
2017-06-19T03:31:07.713Z,50.30
2017-06-19T03:33:35.350Z,50.10
2017-06-19T03:36:03.004Z,50.30
2017-06-19T03:38:30.995Z,51.10
2017-06-19T03:40:59.423Z,51.40
2017-06-19T03:43:27.062Z,51.40
2017-06-19T03:45:55.119Z,51.40
2017-06-19T03:48:23.519Z,51.40
2017-06-19T03:50:51.177Z,51.40
2017-06-19T03:53:19.222Z,51.40
2017-06-19T03:55:47.633Z,51.30
2017-06-19T03:58:15.288Z,51.90
2017-06-19T04:00:42.973Z,51.40
2017-06-19T04:03:10.640Z,51.20
2017-06-19T04:05:38.378Z,50.90
2017-06-19T04:08:06.077Z,50.60
2017-06-19T04:10:33.772Z,50.60
2017-06-19T04:13:02.185Z,49.90
2017-06-19T04:15:30.166Z,49.80
2017-06-19T04:17:57.919Z,49.60
2017-06-19T04:20:25.552Z,49.60
2017-06-19T04:22:53.975Z,49.30
2017-06-19T04:25:21.632Z,49.30
2017-06-19T04:27:49.297Z,49.60
2017-06-19T04:30:16.949Z,50.00
2017-06-19T04:32:44.606Z,49.80
2017-06-19T04:35:12.257Z,49.80
2017-06-19T04:37:39.990Z,49.80
2017-06-19T04:40:07.630Z,49.40
2017-06-19T04:42:35.647Z,49.80
2017-06-19T04:45:03.299Z,50.70
2017-06-19T04:47:31.713Z,50.50
2017-06-19T04:49:59.508Z,50.50
2017-06-19T04:52:27.180Z,49.90
2017-06-19T04:54:55.276Z,49.70
2017-06-19T04:57:23.677Z,49.80
2017-06-19T04:59:51.312Z,49.90
2017-06-19T05:02:21.232Z,49.80
2017-06-19T05:04:49.866Z,49.90
2017-06-19T05:07:17.500Z,49.80
2017-06-19T05:09:45.565Z,49.90
2017-06-19T05:12:13.208Z,49.70
2017-06-19T05:14:41.629Z,49.70
2017-06-19T05:17:10.595Z,49.50
2017-06-19T05:19:38.241Z,49.70
2017-06-19T05:22:06.657Z,49.70
2017-06-19T05:24:34.322Z,49.60
2017-06-19T05:27:01.968Z,49.20
2017-06-19T05:29:30.016Z,49.10
2017-06-19T05:31:58.444Z,48.40
2017-06-19T05:34:26.104Z,48.30
2017-06-19T05:36:54.237Z,47.90
2017-06-19T05:39:22.646Z,47.80
2017-06-19T05:41:50.295Z,47.80
2017-06-19T05:44:18.488Z,47.80
2017-06-19T05:46:46.140Z,47.50
2017-06-19T05:49:13.772Z,47.30
2017-06-19T05:51:42.567Z,47.10
2017-06-19T05:54:10.364Z,47.00
2017-06-19T05:56:38.025Z,46.90
2017-06-19T05:59:06.049Z,46.30
2017-06-19T06:01:34.477Z,45.60
2017-06-19T06:04:02.140Z,45.50
2017-06-19T06:06:30.163Z,45.70
2017-06-19T06:08:58.577Z,44.90
2017-06-19T06:11:26.234Z,44.80
2017-06-19T06:13:54.219Z,43.90
2017-06-19T06:16:21.870Z,43.30
2017-06-19T06:18:49.528Z,42.50
2017-06-19T06:21:17.714Z,42.50
2017-06-19T06:23:45.372Z,42.80
2017-06-19T06:26:13.013Z,42.60
2017-06-19T06:28:41.078Z,42.00
2017-06-19T06:31:08.730Z,42.00
2017-06-19T06:33:37.147Z,41.10
2017-06-19T06:36:05.243Z,41.00
2017-06-19T06:38:32.885Z,41.20
2017-06-19T06:41:00.760Z,40.50
2017-06-19T06:43:28.745Z,40.60
2017-06-19T06:45:56.407Z,40.10
2017-06-19T06:48:24.058Z,40.20
2017-06-19T06:50:52.094Z,40.00
2017-06-19T06:53:19.733Z,39.60
2017-06-19T06:55:48.137Z,39.20
2017-06-19T06:58:16.192Z,39.20
2017-06-19T07:00:44.580Z,39.60
2017-06-19T07:03:12.232Z,39.60
2017-06-19T07:05:41.016Z,38.00
2017-06-19T07:08:09.431Z,38.70
2017-06-19T07:10:37.091Z,38.70
2017-06-19T07:13:05.091Z,38.50
2017-06-19T07:15:32.920Z,38.00
2017-06-19T07:18:00.557Z,38.10
2017-06-19T07:20:29.300Z,37.40
2017-06-19T07:22:56.943Z,37.90
2017-06-19T07:25:24.584Z,36.60
2017-06-19T07:27:52.638Z,36.30
2017-06-19T07:30:21.063Z,35.70
2017-06-19T07:32:48.710Z,35.70
2017-06-19T07:35:16.741Z,36.50
2017-06-19T07:37:45.149Z,36.20
2017-06-19T07:40:12.823Z,36.10
2017-06-19T07:42:40.957Z,35.90
2017-06-19T07:45:09.425Z,35.00
2017-06-19T07:47:37.076Z,34.90
2017-06-19T07:50:05.193Z,34.90
2017-06-19T07:52:32.859Z,34.00
2017-06-19T07:55:00.505Z,35.20
2017-06-19T07:57:28.700Z,35.20
2017-06-19T07:59:56.360Z,34.40
2017-06-19T08:02:24.007Z,33.40
2017-06-19T08:04:51.694Z,32.50
2017-06-19T08:07:19.361Z,33.40
2017-06-19T08:09:47.398Z,32.50
2017-06-19T08:12:15.059Z,32.00
2017-06-19T08:14:42.858Z,32.50
2017-06-19T08:17:10.562Z,32.30
2017-06-19T08:19:38.224Z,32.10
2017-06-19T08:22:07.671Z,30.40
2017-06-19T08:24:35.422Z,30.20
2017-06-19T08:27:03.495Z,30.60
2017-06-19T08:29:31.134Z,30.80
2017-06-19T08:31:59.545Z,29.70
2017-06-19T08:34:27.599Z,29.40
2017-06-19T08:36:55.266Z,28.70
2017-06-19T08:39:22.915Z,28.20
2017-06-19T08:41:51.389Z,27.60
2017-06-19T08:44:19.802Z,27.40
2017-06-19T08:46:47.452Z,27.40
2017-06-19T08:49:15.140Z,26.40
2017-06-19T08:51:42.803Z,25.50
2017-06-19T08:54:10.442Z,24.70
2017-06-19T08:56:38.104Z,24.80
2017-06-19T08:59:06.787Z,25.50
2017-06-19T09:01:34.804Z,24.10
2017-06-19T09:04:02.447Z,23.40
2017-06-19T09:06:30.092Z,23.10
2017-06-19T09:08:57.758Z,22.60
2017-06-19T09:11:25.404Z,22.30
2017-06-19T09:13:53.139Z,21.50
2017-06-19T09:16:21.565Z,18.30
2017-06-19T09:18:49.244Z,18.50
2017-06-19T09:21:16.898Z,17.90
2017-06-19T09:23:45.611Z,17.80
2017-06-19T09:26:13.274Z,16.80
2017-06-19T09:28:41.233Z,15.80
2017-06-19T09:31:08.870Z,15.90
2017-06-19T09:33:36.497Z,16.10
2017-06-19T09:36:04.994Z,16.20
2017-06-19T09:38:32.649Z,16.10
2017-06-19T09:41:00.297Z,15.20
2017-06-19T09:43:28.722Z,15.40
2017-06-19T09:45:56.470Z,14.90
2017-06-19T09:48:24.119Z,15.40
2017-06-19T09:50:51.795Z,15.90
2017-06-19T09:53:19.450Z,15.10
2017-06-19T09:55:47.212Z,15.00
2017-06-19T09:58:14.913Z,14.90
2017-06-19T10:00:42.590Z,15.80
2017-06-19T10:03:10.261Z,14.70
2017-06-19T10:05:37.926Z,15.90
2017-06-19T10:08:05.910Z,15.20
2017-06-19T10:10:34.307Z,14.30
2017-06-19T10:13:01.972Z,14.30
2017-06-19T10:15:29.629Z,15.80
2017-06-19T10:17:57.289Z,16.30
2017-06-19T10:20:24.955Z,17.60
2017-06-19T10:22:52.606Z,18.10
2017-06-19T10:25:21.074Z,17.70
2017-06-19T10:27:49.471Z,17.90
2017-06-19T10:30:17.462Z,17.80
2017-06-19T10:32:45.121Z,18.70
2017-06-19T10:35:12.766Z,18.20
2017-06-19T10:37:40.467Z,19.80
2017-06-19T10:40:08.138Z,20.60
2017-06-19T10:42:35.812Z,19.70
2017-06-19T10:45:03.451Z,19.50
2017-06-19T10:47:31.267Z,19.90
2017-06-19T10:50:00.009Z,21.40
2017-06-19T10:52:28.094Z,21.30
2017-06-19T10:54:55.814Z,21.70
2017-06-19T10:57:23.873Z,20.90
2017-06-19T10:59:51.511Z,21.80
2017-06-19T11:02:19.919Z,22.20
2017-06-19T11:04:47.590Z,22.20
2017-06-19T11:07:15.265Z,23.10
2017-06-19T11:09:42.932Z,23.50
2017-06-19T11:12:10.582Z,24.50
2017-06-19T11:14:38.348Z,23.60
2017-06-19T11:17:06.004Z,23.30
2017-06-19T11:19:33.674Z,22.20
2017-06-19T11:22:01.395Z,23.90
2017-06-19T11:24:30.202Z,24.60
2017-06-19T11:26:57.847Z,24.60
2017-06-19T11:29:26.242Z,24.60
2017-06-19T11:31:53.975Z,24.60
2017-06-19T11:34:22.925Z,24.60
2017-06-19T11:36:50.580Z,24.50
2017-06-19T11:39:18.223Z,24.90
2017-06-19T11:41:45.973Z,24.60
2017-06-19T11:44:14.517Z,24.30
2017-06-19T11:46:42.381Z,24.30
2017-06-19T11:49:10.046Z,24.70
2017-06-19T11:51:37.700Z,24.70
2017-06-19T11:54:05.381Z,24.20
2017-06-19T11:56:33.093Z,24.70
2017-06-19T11:59:00.788Z,25.70
2017-06-19T12:01:28.430Z,24.70
2017-06-19T12:03:56.415Z,24.00
2017-06-19T12:06:24.070Z,24.80
2017-06-19T12:08:51.716Z,24.50
2017-06-19T12:11:19.378Z,24.40
2017-06-19T12:13:47.101Z,23.90
2017-06-19T12:16:15.530Z,24.10
2017-06-19T12:18:43.236Z,24.00
2017-06-19T12:21:10.889Z,24.10
2017-06-19T12:23:38.553Z,22.00
2017-06-19T12:26:06.301Z,22.70
2017-06-19T12:28:33.961Z,22.50
2017-06-19T12:31:01.625Z,22.70
2017-06-19T12:33:29.290Z,23.60
2017-06-19T12:35:56.937Z,24.00
2017-06-19T12:38:24.630Z,23.30
2017-06-19T12:40:52.569Z,23.60
2017-06-19T12:43:20.588Z,23.90
2017-06-19T12:45:49.164Z,24.70
2017-06-19T12:48:16.864Z,24.70
2017-06-19T12:50:44.533Z,23.40
2017-06-19T12:53:12.185Z,23.00
2017-06-19T12:55:39.837Z,23.20
2017-06-19T12:58:07.529Z,23.30
2017-06-19T13:00:35.195Z,24.20
2017-06-19T13:03:02.837Z,24.50
2017-06-19T13:05:30.849Z,24.20
2017-06-19T13:07:58.493Z,24.30
2017-06-19T13:10:26.148Z,24.40
2017-06-19T13:12:53.797Z,24.60
2017-06-19T13:15:21.623Z,24.00
2017-06-19T13:17:50.194Z,25.80
2017-06-19T13:20:18.952Z,26.60
2017-06-19T13:22:47.331Z,26.60
2017-06-19T13:25:15.005Z,26.10
2017-06-19T13:27:42.719Z,26.20
2017-06-19T13:30:10.569Z,25.70
2017-06-19T13:32:38.400Z,25.50
2017-06-19T13:35:07.443Z,24.80
2017-06-19T13:37:35.096Z,25.20
2017-06-19T13:40:02.822Z,24.80
2017-06-19T13:42:30.564Z,24.00
2017-06-19T13:44:58.792Z,24.00
2017-06-19T13:47:26.586Z,25.10
2017-06-19T13:49:54.279Z,23.60
2017-06-19T13:52:21.984Z,24.10
2017-06-19T13:54:50.462Z,24.30
2017-06-19T13:57:18.143Z,24.30
2017-06-19T13:59:45.817Z,24.40
2017-06-19T14:02:13.853Z,25.20
2017-06-19T14:04:42.769Z,25.70
2017-06-19T14:07:10.560Z,25.50
2017-06-19T14:09:38.252Z,24.10
2017-06-19T14:12:05.938Z,25.40
2017-06-19T14:14:34.746Z,25.10
2017-06-19T14:17:02.472Z,25.00
2017-06-19T14:19:30.262Z,26.20
2017-06-19T14:21:58.720Z,25.90
2017-06-19T14:24:26.373Z,25.90
2017-06-19T14:26:54.067Z,25.50
2017-06-19T14:29:22.621Z,25.80
2017-06-19T14:31:50.302Z,25.80
2017-06-19T14:34:18.099Z,25.10
2017-06-19T14:36:46.277Z,26.20
2017-06-19T14:39:13.943Z,26.10
2017-06-19T14:41:41.605Z,24.50
2017-06-19T14:44:09.292Z,24.70
2017-06-19T14:46:36.942Z,24.20
2017-06-19T14:49:04.725Z,25.00
2017-06-19T14:51:32.379Z,25.10
2017-06-19T14:54:00.381Z,25.10
2017-06-19T14:56:29.809Z,24.20
2017-06-19T14:58:57.504Z,24.50
2017-06-19T15:01:26.044Z,24.00
2017-06-19T15:03:53.960Z,24.70
2017-06-19T15:06:21.721Z,25.40
2017-06-19T15:08:49.374Z,24.00
2017-06-19T15:11:17.191Z,24.50
2017-06-19T15:13:45.752Z,23.20
2017-06-19T15:16:15.541Z,23.20
2017-06-19T15:18:43.362Z,23.50
2017-06-19T15:21:17.297Z,23.50
2017-06-19T15:23:50.556Z,23.50
2017-06-19T15:26:18.549Z,24.20
2017-06-19T15:28:46.204Z,25.20
2017-06-19T15:31:13.877Z,24.80
2017-06-19T15:33:41.538Z,25.10
2017-06-19T15:36:09.184Z,24.90
2017-06-19T15:38:38.305Z,24.50
2017-06-19T15:41:06.021Z,25.30
2017-06-19T15:43:33.678Z,25.10
2017-06-19T15:46:01.318Z,26.80
2017-06-19T15:48:29.054Z,25.70
2017-06-19T15:50:56.755Z,25.30
2017-06-19T15:53:24.397Z,25.40
2017-06-19T15:55:52.404Z,26.30
2017-06-19T15:58:20.063Z,25.40
2017-06-19T16:00:47.706Z,24.50
2017-06-19T16:03:15.864Z,24.70
2017-06-19T16:05:43.511Z,24.30
2017-06-19T16:08:11.152Z,25.10
2017-06-19T16:10:39.319Z,24.60
2017-06-19T16:13:06.981Z,24.00
2017-06-19T16:15:34.649Z,24.00
2017-06-19T16:18:02.322Z,24.70
2017-06-19T16:20:29.974Z,24.20
2017-06-19T16:22:57.985Z,23.00
2017-06-19T16:25:25.636Z,22.80
2017-06-19T16:27:53.298Z,23.90
2017-06-19T16:30:21.327Z,24.30
2017-06-19T16:32:48.999Z,24.60
2017-06-19T16:35:16.646Z,24.00
2017-06-19T16:37:45.141Z,24.00
2017-06-19T16:40:12.840Z,24.00
2017-06-19T16:42:40.520Z,23.80
2017-06-19T16:45:08.207Z,23.90
2017-06-19T16:47:36.959Z,24.00
2017-06-19T16:50:04.609Z,24.00
2017-06-19T16:52:32.272Z,22.90
2017-06-19T16:55:00.546Z,23.30
2017-06-19T16:57:28.205Z,23.30
2017-06-19T16:59:55.878Z,23.50
2017-06-19T17:02:23.925Z,23.80
2017-06-19T17:04:51.568Z,24.20
2017-06-19T17:07:19.984Z,23.30
2017-06-19T17:09:48.131Z,23.20
2017-06-19T17:12:15.808Z,23.30
2017-06-19T17:14:43.451Z,23.80
2017-06-19T17:17:11.642Z,23.60
2017-06-19T17:19:39.482Z,23.90
2017-06-19T17:22:08.002Z,23.80
2017-06-19T17:24:35.993Z,23.80
2017-06-19T17:27:03.668Z,23.70
2017-06-19T17:29:31.334Z,23.00
2017-06-19T17:31:59.093Z,23.30
2017-06-19T17:34:26.753Z,24.10
2017-06-19T17:36:54.496Z,24.20
2017-06-19T17:39:22.219Z,24.40
2017-06-19T17:41:49.980Z,24.20
2017-06-19T17:44:17.865Z,24.60
2017-06-19T17:46:45.905Z,24.40
2017-06-19T17:49:14.517Z,25.50
2017-06-19T17:51:42.190Z,25.10
2017-06-19T17:54:09.872Z,25.80
2017-06-19T17:56:37.522Z,25.50
2017-06-19T17:59:05.254Z,25.00
2017-06-19T18:01:32.981Z,25.10
2017-06-19T18:04:00.652Z,25.90
2017-06-19T18:06:28.299Z,26.40
2017-06-19T18:08:55.973Z,27.00
2017-06-19T18:11:23.643Z,27.30
2017-06-19T18:13:52.579Z,27.90
2017-06-19T18:16:20.231Z,27.20
2017-06-19T18:18:47.907Z,27.50
2017-06-19T18:21:15.671Z,27.20
2017-06-19T18:23:43.465Z,27.10
2017-06-19T18:26:11.365Z,26.60
2017-06-19T18:28:39.041Z,27.20
2017-06-19T18:31:07.116Z,27.80
2017-06-19T18:33:34.816Z,27.30
2017-06-19T18:36:02.468Z,27.50
2017-06-19T18:38:30.171Z,28.00
2017-06-19T18:40:59.291Z,28.00
2017-06-19T18:43:27.660Z,27.90
2017-06-19T18:45:56.148Z,28.20
2017-06-19T18:48:23.923Z,28.20
2017-06-19T18:50:51.602Z,28.50
2017-06-19T18:53:19.675Z,28.60
2017-06-19T18:55:47.341Z,28.70
2017-06-19T18:58:14.993Z,28.80
2017-06-19T19:00:42.671Z,29.00
2017-06-19T19:03:10.328Z,29.00
2017-06-19T19:05:38.029Z,29.00
2017-06-19T19:08:06.505Z,29.10
2017-06-19T19:10:34.273Z,28.80
2017-06-19T19:13:02.058Z,29.00
2017-06-19T19:15:30.676Z,28.90
2017-06-19T19:17:58.350Z,28.90
2017-06-19T19:20:26.314Z,28.60
2017-06-19T19:22:54.534Z,28.50
2017-06-19T19:25:22.730Z,28.60
2017-06-19T19:27:51.157Z,28.60
2017-06-19T19:30:18.982Z,28.60
2017-06-19T19:32:47.782Z,29.10
2017-06-19T19:35:16.366Z,29.00
2017-06-19T19:37:44.056Z,29.40
2017-06-19T19:40:11.741Z,29.50
2017-06-19T19:42:39.436Z,29.60
2017-06-19T19:45:08.692Z,30.50
2017-06-19T19:47:36.359Z,30.50
2017-06-19T19:50:04.051Z,30.90
2017-06-19T19:52:33.166Z,30.20
2017-06-19T19:55:01.251Z,30.10
2017-06-19T19:57:29.866Z,30.00
2017-06-19T19:59:57.537Z,30.30
2017-06-19T20:02:25.209Z,30.80
2017-06-19T20:04:52.875Z,30.70
2017-06-19T20:07:20.595Z,30.70
2017-06-19T20:09:48.278Z,30.70
2017-06-19T20:12:15.954Z,30.90
2017-06-19T20:14:43.607Z,31.10
2017-06-19T20:17:11.285Z,30.80
2017-06-19T20:19:38.942Z,31.00
2017-06-19T20:22:06.942Z,31.10
2017-06-19T20:24:35.430Z,31.80
2017-06-19T20:27:03.843Z,32.20
2017-06-19T20:29:31.534Z,32.20
2017-06-19T20:31:59.255Z,32.40
2017-06-19T20:34:27.118Z,32.60
2017-06-19T20:36:54.873Z,32.60
2017-06-19T20:39:22.968Z,32.70
2017-06-19T20:41:50.618Z,32.90
2017-06-19T20:44:18.258Z,33.10
2017-06-19T20:46:46.693Z,33.20
2017-06-19T20:49:14.357Z,33.20
2017-06-19T20:51:42.310Z,33.20
2017-06-19T20:54:09.950Z,33.20
2017-06-19T20:56:37.620Z,33.20
2017-06-19T20:59:05.658Z,33.10
2017-06-19T21:01:34.091Z,33.20
2017-06-19T21:04:01.793Z,33.20
2017-06-19T21:06:30.650Z,34.30
2017-06-19T21:08:58.383Z,33.60
2017-06-19T21:11:26.032Z,33.80
2017-06-19T21:13:54.013Z,33.80
2017-06-19T21:16:21.776Z,33.80
2017-06-19T21:18:49.552Z,34.20
2017-06-19T21:21:17.752Z,35.00
2017-06-19T21:23:45.682Z,35.30
2017-06-19T21:26:13.392Z,35.30
2017-06-19T21:28:41.398Z,35.10
